Current Weather

Muskegon County

Muskegon, Michigan (KMKG)

Report from: Friday, June 21, 2024 6:55 PM EDT
Current time: Friday, June 21, 2024 7:17 PM EDT

Nearby weather – Weather history – Daily summaries
Weather forecast

Temperature27.2°C (81.0°F)
Heat index28.8°C (83.8°F)
Dew point19.4°C (66.9°F)
Winds 3 kts (1.5 m/s, 3.5 mph) Vrb
Winds variableWinds variable
Visibility10 mi. (16.1 km)
Clouds Scattered clouds 25,000 ft. (7,620 m)
Altimeter30.10 in.Hg (1019 mB)
Relative humidity62 %
Density altitude1,526 ft. (465 m)
Sea-level pressure101.9 kPa (1019 mB, 30.09 in.Hg)
Remarks Automated weather observing station with precipitation discriminator
Flight conditions Visual Meteorological Conditions
Raw dataKMKG 212255Z VRB03KT 10SM SCT250 27/19 A3010 RMK AO2 SLP188 T02720194
An error has occurred. This application may no longer respond until reloaded. Reload 🗙